Payette, Idaho
Current Conditions -  °F | °C
As of 11:53 PM on Friday 19 Dec 2014 (Local Time) from KONO Reporting Station
Haze Haze  
Wind Chill: 31°   Ceiling: 1100
Heat Index: 35°   Visibility: 3mi
Dew Point: 33°   Wind: 5mph
Humidity: 92%   Direction: 230°SW
Pressure: 30.11"   Gusts: NA
Location:  44.07°N, 116.93°W
Report Text: KONO 200653Z AUTO 23004KT 3SM BR OVC011 02/01 A3011 RMK AO2 SLP210 T00170006 400780006
Loading
Personal Weather Stations






























Interactive Weather Map New forecast layout! Learn more

10-Day Weather Forecast

Advertisements
Track Severe Weather on mobile